createdAt,value
2018-12-19T00:02:15.588Z,100.00
2018-12-19T00:04:44.104Z,100.00
2018-12-19T00:07:12.650Z,100.00
2018-12-19T00:09:41.163Z,100.00
2018-12-19T00:12:09.516Z,100.00
2018-12-19T00:14:38.724Z,100.00
2018-12-19T00:17:07.096Z,100.00
2018-12-19T00:19:35.406Z,100.00
2018-12-19T00:22:03.856Z,100.00
2018-12-19T00:24:32.165Z,100.00
2018-12-19T00:27:00.591Z,100.00
2018-12-19T00:29:28.857Z,100.00
2018-12-19T00:31:57.192Z,100.00
2018-12-19T00:34:25.473Z,100.00
2018-12-19T00:36:53.773Z,100.00
2018-12-19T00:39:22.069Z,100.00
2018-12-19T00:41:50.460Z,100.00
2018-12-19T00:44:18.815Z,100.00
2018-12-19T00:46:47.230Z,100.00
2018-12-19T00:49:15.582Z,100.00
2018-12-19T00:51:43.995Z,100.00
2018-12-19T00:54:12.533Z,100.00
2018-12-19T00:56:40.850Z,100.00
2018-12-19T00:59:09.202Z,100.00
2018-12-19T01:01:37.592Z,100.00
2018-12-19T01:04:05.882Z,100.00
2018-12-19T01:06:34.299Z,100.00
2018-12-19T01:09:04.009Z,100.00
2018-12-19T01:11:32.478Z,100.00
2018-12-19T01:14:00.769Z,100.00
2018-12-19T01:16:29.191Z,100.00
2018-12-19T01:18:57.483Z,100.00
2018-12-19T01:21:25.816Z,100.00
2018-12-19T01:23:54.179Z,100.00
2018-12-19T01:26:22.590Z,100.00
2018-12-19T01:28:50.933Z,100.00
2018-12-19T01:31:19.355Z,100.00
2018-12-19T01:33:47.705Z,100.00
2018-12-19T01:36:16.229Z,100.00
2018-12-19T01:38:44.544Z,100.00
2018-12-19T01:41:12.853Z,100.00
2018-12-19T01:43:41.201Z,100.00
2018-12-19T01:46:09.500Z,100.00
2018-12-19T01:48:38.056Z,100.00
2018-12-19T01:51:06.591Z,100.00
2018-12-19T01:53:35.016Z,100.00
2018-12-19T01:56:03.852Z,100.00
2018-12-19T01:58:32.125Z,100.00
2018-12-19T02:01:00.425Z,100.00
2018-12-19T02:03:28.732Z,100.00
2018-12-19T02:05:57.139Z,100.00
2018-12-19T02:08:25.492Z,100.00
2018-12-19T02:10:53.797Z,100.00
2018-12-19T02:13:22.151Z,100.00
2018-12-19T02:15:50.542Z,100.00
2018-12-19T02:18:18.893Z,100.00
2018-12-19T02:20:47.309Z,100.00
2018-12-19T02:23:15.585Z,100.00
2018-12-19T02:25:43.948Z,100.00
2018-12-19T02:28:12.221Z,100.00
2018-12-19T02:30:40.596Z,100.00
2018-12-19T02:33:08.890Z,100.00
2018-12-19T02:35:37.181Z,99.96
2018-12-19T02:38:05.497Z,99.82
2018-12-19T02:40:33.836Z,100.00
2018-12-19T02:43:02.094Z,99.94
2018-12-19T02:45:30.444Z,99.57
2018-12-19T02:47:58.804Z,99.53
2018-12-19T02:50:27.223Z,99.27
2018-12-19T02:52:55.589Z,100.00
2018-12-19T02:55:23.891Z,99.95
2018-12-19T02:57:52.162Z,99.55
2018-12-19T03:00:20.628Z,99.10
2018-12-19T03:02:49.009Z,99.49
2018-12-19T03:05:17.497Z,98.71
2018-12-19T03:07:45.838Z,98.13
2018-12-19T03:10:14.228Z,98.16
2018-12-19T03:12:42.580Z,97.67
2018-12-19T03:15:11.074Z,98.61
2018-12-19T03:17:39.479Z,98.77
2018-12-19T03:20:08.030Z,98.81
2018-12-19T03:22:36.436Z,98.54
2018-12-19T03:25:05.098Z,98.13
2018-12-19T03:27:33.431Z,98.71
2018-12-19T03:30:01.701Z,99.19
2018-12-19T03:32:30.036Z,99.47
2018-12-19T03:34:58.392Z,98.80
2018-12-19T03:37:26.783Z,98.68
2018-12-19T03:39:55.139Z,99.29
2018-12-19T03:42:27.001Z,99.68
2018-12-19T03:44:56.733Z,100.00
2018-12-19T03:47:26.887Z,100.00
2018-12-19T03:49:55.508Z,100.00
2018-12-19T03:52:23.824Z,100.00
2018-12-19T03:54:52.273Z,99.41
2018-12-19T03:57:20.788Z,99.79
2018-12-19T03:59:49.132Z,99.18
2018-12-19T04:02:17.514Z,98.85
2018-12-19T04:04:45.878Z,98.72
2018-12-19T04:07:14.175Z,99.00
2018-12-19T04:09:42.545Z,99.55
2018-12-19T04:12:10.934Z,99.09
2018-12-19T04:14:39.226Z,98.24
2018-12-19T04:17:07.578Z,98.91
2018-12-19T04:19:35.936Z,99.00
2018-12-19T04:22:04.246Z,97.89
2018-12-19T04:24:32.646Z,98.75
2018-12-19T04:27:00.988Z,98.05
2018-12-19T04:29:29.476Z,98.87
2018-12-19T04:31:57.834Z,98.70
2018-12-19T04:34:26.250Z,99.16
2018-12-19T04:36:54.575Z,98.99
2018-12-19T04:39:23.008Z,98.57
2018-12-19T04:41:51.347Z,98.32
2018-12-19T04:44:19.744Z,98.56
2018-12-19T04:46:48.094Z,98.55
2018-12-19T04:49:16.372Z,98.50
2018-12-19T04:51:44.910Z,98.79
2018-12-19T04:54:13.256Z,99.75
2018-12-19T04:56:41.631Z,99.41
2018-12-19T04:59:09.976Z,98.72
2018-12-19T05:01:38.417Z,98.55
2018-12-19T05:04:06.708Z,99.15
2018-12-19T05:06:35.166Z,98.52
2018-12-19T05:09:05.468Z,99.31
2018-12-19T05:11:34.203Z,99.03
2018-12-19T05:14:02.496Z,99.07
2018-12-19T05:16:30.949Z,98.37
2018-12-19T05:18:59.517Z,99.00
2018-12-19T05:21:27.902Z,99.84
2018-12-19T05:23:56.332Z,99.59
2018-12-19T05:26:24.774Z,98.99
2018-12-19T05:28:53.181Z,99.58
2018-12-19T05:31:21.588Z,100.00
2018-12-19T05:33:49.917Z,100.00
2018-12-19T05:36:18.464Z,100.00
2018-12-19T05:38:46.989Z,100.00
2018-12-19T05:41:15.461Z,99.55
2018-12-19T05:43:43.840Z,98.78
2018-12-19T05:46:12.160Z,99.16
2018-12-19T05:48:40.434Z,98.26
2018-12-19T05:51:08.797Z,97.68
2018-12-19T05:53:37.148Z,98.30
2018-12-19T05:56:05.546Z,96.38
2018-12-19T05:58:33.885Z,96.73
2018-12-19T06:01:02.415Z,96.27
2018-12-19T06:03:30.760Z,96.82
2018-12-19T06:05:59.235Z,97.01
2018-12-19T06:08:27.630Z,97.69
2018-12-19T06:10:55.992Z,97.13
2018-12-19T06:13:24.293Z,97.86
2018-12-19T06:15:52.646Z,97.68
2018-12-19T06:18:20.948Z,98.76
2018-12-19T06:20:49.244Z,97.86
2018-12-19T06:23:17.757Z,98.36
2018-12-19T06:25:46.314Z,98.54
2018-12-19T06:28:14.680Z,98.57
2018-12-19T06:30:43.162Z,97.61
2018-12-19T06:33:11.503Z,98.31
2018-12-19T06:35:40.191Z,97.94
2018-12-19T06:38:08.588Z,97.88
2018-12-19T06:40:36.959Z,97.43
2018-12-19T06:43:05.432Z,97.03
2018-12-19T06:45:34.025Z,97.61
2018-12-19T06:48:02.740Z,97.32
2018-12-19T06:50:31.487Z,97.22
2018-12-19T06:53:00.758Z,96.95
2018-12-19T06:55:29.540Z,97.25
2018-12-19T06:57:57.863Z,98.01
2018-12-19T07:00:26.377Z,97.88
2018-12-19T07:02:54.743Z,97.59
2018-12-19T07:05:23.075Z,98.12
2018-12-19T07:08:06.565Z,97.19
2018-12-19T07:10:39.070Z,96.60
2018-12-19T07:13:05.566Z,97.34
2018-12-19T07:15:34.057Z,97.99
2018-12-19T07:18:02.581Z,97.57
2018-12-19T07:20:31.120Z,96.92
2018-12-19T07:22:59.729Z,97.83
2018-12-19T07:25:28.195Z,97.31
2018-12-19T07:27:56.673Z,96.92
2018-12-19T07:30:25.040Z,97.39
2018-12-19T07:32:53.465Z,97.45
2018-12-19T07:35:21.763Z,97.69
2018-12-19T07:37:50.701Z,97.34
2018-12-19T07:40:19.046Z,97.63
2018-12-19T07:42:47.427Z,96.55
2018-12-19T07:45:15.701Z,96.92
2018-12-19T07:47:44.068Z,96.43
2018-12-19T07:50:12.451Z,97.48
2018-12-19T07:52:41.352Z,97.43
2018-12-19T07:55:09.674Z,97.17
2018-12-19T07:57:38.139Z,96.82
2018-12-19T08:00:06.716Z,96.92
2018-12-19T08:02:35.108Z,97.51
2018-12-19T08:05:03.572Z,97.87
2018-12-19T08:07:32.140Z,97.87
2018-12-19T08:10:00.695Z,98.21
2018-12-19T08:12:29.201Z,97.98
2018-12-19T08:15:01.633Z,97.65
2018-12-19T08:17:30.044Z,97.27
2018-12-19T08:19:58.333Z,97.61
2018-12-19T08:22:26.696Z,98.18
2018-12-19T08:24:54.964Z,98.06
2018-12-19T08:27:23.339Z,98.92
2018-12-19T08:29:51.717Z,98.28
2018-12-19T08:32:20.037Z,98.36
2018-12-19T08:34:48.482Z,98.96
2018-12-19T08:37:17.098Z,98.28
2018-12-19T08:39:45.426Z,98.76
2018-12-19T08:42:13.816Z,99.39
2018-12-19T08:44:42.165Z,98.45
2018-12-19T08:47:10.494Z,98.78
2018-12-19T08:49:38.861Z,98.72
2018-12-19T08:52:07.245Z,98.71
2018-12-19T08:54:35.736Z,98.13
2018-12-19T08:57:04.159Z,98.60
2018-12-19T08:59:32.576Z,98.02
2018-12-19T09:02:00.909Z,98.85
2018-12-19T09:04:29.296Z,99.43
2018-12-19T09:06:57.685Z,99.76
2018-12-19T09:09:26.238Z,99.52
2018-12-19T09:11:54.536Z,99.75
2018-12-19T09:14:22.845Z,98.99
2018-12-19T09:16:51.151Z,99.48
2018-12-19T09:19:19.447Z,99.32
2018-12-19T09:21:47.957Z,98.88
2018-12-19T09:24:16.302Z,98.72
2018-12-19T09:26:44.648Z,99.22
2018-12-19T09:29:13.068Z,99.05
2018-12-19T09:31:46.107Z,98.54
2018-12-19T09:34:15.257Z,99.21
2018-12-19T09:36:43.653Z,98.90
2018-12-19T09:39:12.077Z,98.30
2018-12-19T09:41:40.454Z,98.27
2018-12-19T09:44:08.885Z,98.25
2018-12-19T09:46:37.351Z,97.69
2018-12-19T09:49:12.245Z,98.16
2018-12-19T09:51:35.994Z,98.34
2018-12-19T09:54:04.478Z,98.00
2018-12-19T09:56:32.784Z,98.68
2018-12-19T09:59:01.093Z,99.26
2018-12-19T10:01:29.548Z,99.10
2018-12-19T10:03:58.787Z,99.07
2018-12-19T10:06:27.977Z,98.79
2018-12-19T10:08:56.446Z,99.06
2018-12-19T10:11:24.875Z,97.89
2018-12-19T10:13:53.295Z,98.06
2018-12-19T10:16:21.640Z,97.72
2018-12-19T10:18:49.952Z,97.10
2018-12-19T10:21:18.437Z,97.34
2018-12-19T10:23:46.789Z,97.00
2018-12-19T10:26:15.327Z,97.24
2018-12-19T10:28:43.649Z,97.44
2018-12-19T10:31:11.975Z,97.81
2018-12-19T10:33:40.483Z,98.07
2018-12-19T10:36:08.990Z,98.34
2018-12-19T10:38:37.293Z,98.43
2018-12-19T10:41:05.627Z,98.27
2018-12-19T10:43:34.419Z,97.90
2018-12-19T10:46:02.856Z,97.53
2018-12-19T10:48:31.211Z,97.23
2018-12-19T10:50:59.540Z,97.89
2018-12-19T10:53:27.864Z,97.00
2018-12-19T10:55:56.217Z,97.08
2018-12-19T10:58:24.581Z,96.49
2018-12-19T11:01:00.394Z,96.37
2018-12-19T11:03:28.756Z,96.68
2018-12-19T11:05:57.211Z,96.95
2018-12-19T11:08:25.715Z,97.18
2018-12-19T11:10:54.168Z,97.27
2018-12-19T11:13:22.548Z,96.95
2018-12-19T11:15:50.926Z,97.16
2018-12-19T11:18:19.327Z,96.55
2018-12-19T11:20:47.664Z,97.17
2018-12-19T11:23:15.971Z,97.02
2018-12-19T11:25:44.298Z,96.50
2018-12-19T11:28:12.692Z,96.91
2018-12-19T11:30:41.080Z,96.14
2018-12-19T11:33:09.481Z,96.58
2018-12-19T11:35:37.839Z,96.68
2018-12-19T11:38:06.251Z,97.50
2018-12-19T11:40:34.815Z,96.97
2018-12-19T11:43:03.156Z,96.62
2018-12-19T11:45:31.476Z,97.27
2018-12-19T11:47:59.825Z,97.15
2018-12-19T11:50:28.149Z,97.62
2018-12-19T11:52:58.258Z,98.06
2018-12-19T11:55:26.695Z,97.37
2018-12-19T11:57:55.012Z,97.20
2018-12-19T12:00:23.350Z,97.39
2018-12-19T12:02:51.755Z,97.28
2018-12-19T12:05:20.061Z,97.19
2018-12-19T12:07:48.397Z,97.35
2018-12-19T12:10:16.760Z,96.26
2018-12-19T12:12:45.170Z,97.39
2018-12-19T12:15:13.754Z,97.24
2018-12-19T12:17:42.101Z,97.12
2018-12-19T12:20:10.453Z,96.29
2018-12-19T12:22:41.198Z,96.71
2018-12-19T12:25:09.735Z,97.12
2018-12-19T12:27:38.257Z,96.77
2018-12-19T12:30:07.373Z,97.22
2018-12-19T12:32:35.854Z,96.80
2018-12-19T12:35:05.923Z,96.96
2018-12-19T12:37:36.752Z,96.61
2018-12-19T12:40:05.886Z,96.97
2018-12-19T12:42:35.524Z,97.17
2018-12-19T12:45:08.837Z,97.09
2018-12-19T12:47:38.571Z,97.56
2018-12-19T12:50:07.593Z,97.51
2018-12-19T12:52:37.189Z,97.19
2018-12-19T12:55:06.842Z,96.95
2018-12-19T12:57:36.227Z,97.02
2018-12-19T13:00:06.956Z,96.89
2018-12-19T13:02:36.479Z,96.55
2018-12-19T13:05:06.718Z,96.76
2018-12-19T13:07:36.058Z,98.31
2018-12-19T13:10:05.578Z,97.74
2018-12-19T13:12:33.863Z,97.51
2018-12-19T13:15:02.268Z,98.05
2018-12-19T13:17:30.580Z,98.42
2018-12-19T13:19:59.003Z,98.75
2018-12-19T13:22:27.440Z,98.43
2018-12-19T13:24:55.775Z,97.56
2018-12-19T13:27:24.111Z,97.81
2018-12-19T13:29:52.457Z,98.96
2018-12-19T13:32:20.876Z,97.87
2018-12-19T13:34:49.211Z,98.20
2018-12-19T13:37:17.998Z,97.75
2018-12-19T13:39:46.493Z,97.18
2018-12-19T13:42:15.019Z,98.23
2018-12-19T13:44:43.367Z,97.83
2018-12-19T13:47:11.859Z,97.69
2018-12-19T13:49:40.372Z,97.38
2018-12-19T13:52:08.804Z,97.82
2018-12-19T13:54:37.418Z,96.83
2018-12-19T13:57:05.841Z,97.84
2018-12-19T13:59:34.284Z,98.15
2018-12-19T14:02:03.116Z,97.44
2018-12-19T14:04:32.048Z,97.31
2018-12-19T14:07:01.067Z,96.90
2018-12-19T14:09:29.406Z,98.16
2018-12-19T14:11:57.745Z,98.45
2018-12-19T14:14:26.165Z,98.27
2018-12-19T14:16:54.481Z,98.51
2018-12-19T14:19:22.816Z,98.10
2018-12-19T14:21:51.117Z,97.68
2018-12-19T14:24:19.566Z,98.85
2018-12-19T14:26:47.937Z,98.67
2018-12-19T14:29:16.276Z,98.01
2018-12-19T14:31:44.582Z,97.76
2018-12-19T14:34:12.905Z,97.66
2018-12-19T14:36:41.209Z,99.13
2018-12-19T14:39:09.554Z,98.47
2018-12-19T14:41:37.916Z,99.15
2018-12-19T14:44:06.453Z,99.07
2018-12-19T14:46:35.011Z,98.92
2018-12-19T14:49:03.643Z,98.27
2018-12-19T14:51:32.307Z,98.90
2018-12-19T14:54:00.676Z,97.87
2018-12-19T14:56:31.745Z,98.05
2018-12-19T14:59:00.096Z,98.21
2018-12-19T15:01:30.682Z,99.07
2018-12-19T15:04:00.787Z,98.59
2018-12-19T15:06:29.882Z,98.85
2018-12-19T15:08:59.054Z,99.73
2018-12-19T15:11:27.432Z,99.70
2018-12-19T15:13:55.872Z,99.71
2018-12-19T15:16:24.764Z,99.80
2018-12-19T15:18:53.252Z,99.46
2018-12-19T15:21:21.769Z,99.01
2018-12-19T15:23:50.809Z,99.83
2018-12-19T15:26:19.745Z,99.07
2018-12-19T15:28:48.853Z,100.00
2018-12-19T15:31:18.411Z,99.58
2018-12-19T15:33:46.863Z,99.95
2018-12-19T15:36:15.505Z,100.00
2018-12-19T15:38:44.057Z,99.93
2018-12-19T15:41:13.264Z,99.69
2018-12-19T15:43:42.986Z,99.60
2018-12-19T15:46:12.970Z,100.00
2018-12-19T15:48:41.791Z,100.00
2018-12-19T15:51:10.556Z,99.67
2018-12-19T15:53:39.626Z,100.00
2018-12-19T15:56:08.444Z,100.00
2018-12-19T15:58:36.862Z,100.00
2018-12-19T16:01:05.464Z,99.54
2018-12-19T16:03:34.059Z,97.78
2018-12-19T16:06:03.081Z,98.87
2018-12-19T16:08:31.970Z,98.59
2018-12-19T16:11:00.735Z,99.36
2018-12-19T16:13:29.551Z,99.36
2018-12-19T16:15:58.896Z,100.00
2018-12-19T16:18:27.574Z,99.82
2018-12-19T16:20:56.154Z,99.67
2018-12-19T16:23:24.697Z,100.00
2018-12-19T16:25:53.398Z,100.00
2018-12-19T16:28:22.172Z,100.00
2018-12-19T16:30:50.880Z,100.00
2018-12-19T16:33:19.433Z,100.00
2018-12-19T16:35:48.154Z,100.00
2018-12-19T16:38:16.659Z,100.00
2018-12-19T16:40:45.172Z,100.00
2018-12-19T16:43:30.485Z,100.00
2018-12-19T16:45:58.898Z,100.00
2018-12-19T16:48:27.215Z,100.00
2018-12-19T16:50:55.531Z,100.00
2018-12-19T16:53:23.838Z,100.00
2018-12-19T16:55:52.177Z,100.00
2018-12-19T16:58:20.569Z,100.00
2018-12-19T17:00:48.906Z,100.00
2018-12-19T17:03:17.426Z,100.00
2018-12-19T17:05:45.835Z,100.00
2018-12-19T17:08:14.171Z,100.00
2018-12-19T17:10:42.580Z,100.00
2018-12-19T17:13:10.950Z,100.00
2018-12-19T17:15:39.272Z,100.00
2018-12-19T17:18:07.837Z,100.00
2018-12-19T17:20:36.294Z,100.00
2018-12-19T17:23:04.621Z,100.00
2018-12-19T17:25:33.092Z,100.00
2018-12-19T17:28:01.395Z,100.00
2018-12-19T17:30:29.684Z,100.00
2018-12-19T17:32:58.069Z,100.00
2018-12-19T17:35:26.355Z,100.00
2018-12-19T17:37:54.748Z,100.00
2018-12-19T17:40:23.155Z,100.00
2018-12-19T17:42:51.568Z,100.00
2018-12-19T17:45:19.936Z,100.00
2018-12-19T17:47:48.317Z,100.00
2018-12-19T17:50:17.784Z,100.00
2018-12-19T17:52:46.173Z,100.00
2018-12-19T17:55:14.545Z,100.00
2018-12-19T17:57:42.977Z,100.00
2018-12-19T18:00:12.496Z,100.00
2018-12-19T18:02:40.976Z,100.00
2018-12-19T18:05:09.304Z,100.00
2018-12-19T18:07:37.695Z,100.00
2018-12-19T18:10:06.490Z,100.00
2018-12-19T18:12:34.981Z,100.00
2018-12-19T18:15:03.443Z,100.00
2018-12-19T18:17:31.819Z,100.00
2018-12-19T18:20:00.193Z,100.00
2018-12-19T18:22:28.594Z,100.00
2018-12-19T18:24:56.957Z,100.00
2018-12-19T18:27:25.330Z,100.00
2018-12-19T18:29:53.710Z,100.00
2018-12-19T18:32:22.053Z,100.00
2018-12-19T18:34:50.571Z,100.00
2018-12-19T18:37:19.058Z,100.00
2018-12-19T18:39:47.349Z,100.00
2018-12-19T18:42:15.705Z,100.00
2018-12-19T18:44:44.008Z,100.00
2018-12-19T18:47:12.424Z,100.00
2018-12-19T18:49:40.832Z,100.00
2018-12-19T18:52:09.183Z,100.00
2018-12-19T18:54:37.586Z,100.00
2018-12-19T18:57:06.162Z,100.00
2018-12-19T18:59:34.497Z,100.00
2018-12-19T19:02:02.972Z,100.00
2018-12-19T19:04:33.806Z,100.00
2018-12-19T19:07:02.227Z,100.00
2018-12-19T19:09:30.934Z,100.00
2018-12-19T19:11:59.302Z,100.00
2018-12-19T19:14:27.669Z,100.00
2018-12-19T19:16:56.048Z,100.00
2018-12-19T19:19:24.667Z,100.00
2018-12-19T19:21:53.008Z,100.00
2018-12-19T19:24:21.409Z,100.00
2018-12-19T19:26:49.734Z,100.00
2018-12-19T19:29:18.409Z,100.00
2018-12-19T19:31:47.016Z,100.00
2018-12-19T19:34:15.763Z,100.00
2018-12-19T19:36:44.452Z,100.00
2018-12-19T19:39:12.900Z,100.00
2018-12-19T19:41:41.643Z,100.00
2018-12-19T19:44:10.408Z,100.00
2018-12-19T19:46:38.710Z,100.00
2018-12-19T19:49:07.302Z,100.00
2018-12-19T19:51:36.738Z,100.00
2018-12-19T19:54:05.096Z,100.00
2018-12-19T19:56:33.467Z,100.00
2018-12-19T19:59:02.062Z,100.00
2018-12-19T20:01:30.555Z,100.00
2018-12-19T20:03:58.927Z,100.00
2018-12-19T20:06:27.357Z,100.00
2018-12-19T20:08:57.006Z,100.00
2018-12-19T20:11:25.436Z,100.00
2018-12-19T20:13:55.431Z,100.00
2018-12-19T20:16:23.760Z,100.00
2018-12-19T20:18:52.273Z,100.00
2018-12-19T20:21:20.616Z,100.00
2018-12-19T20:23:49.117Z,100.00
2018-12-19T20:26:17.453Z,100.00
2018-12-19T20:28:46.257Z,100.00
2018-12-19T20:31:14.914Z,100.00
2018-12-19T20:33:43.328Z,100.00
2018-12-19T20:36:11.911Z,100.00
2018-12-19T20:38:40.399Z,100.00
2018-12-19T20:41:08.773Z,100.00
2018-12-19T20:43:40.124Z,100.00
2018-12-19T20:46:07.756Z,100.00
2018-12-19T20:48:36.161Z,100.00
2018-12-19T20:51:05.091Z,100.00
2018-12-19T20:53:33.582Z,100.00
2018-12-19T20:56:03.857Z,100.00
2018-12-19T20:58:32.376Z,100.00
2018-12-19T21:01:00.856Z,100.00
2018-12-19T21:03:29.419Z,100.00
2018-12-19T21:05:57.998Z,100.00
2018-12-19T21:08:26.358Z,100.00
2018-12-19T21:10:54.712Z,100.00
2018-12-19T21:13:23.211Z,100.00
2018-12-19T21:15:52.667Z,100.00
2018-12-19T21:18:26.500Z,100.00
2018-12-19T21:20:55.125Z,100.00
2018-12-19T21:23:23.448Z,100.00
2018-12-19T21:25:51.840Z,100.00
2018-12-19T21:28:20.435Z,100.00
2018-12-19T21:30:48.890Z,100.00
2018-12-19T21:33:17.447Z,100.00
2018-12-19T21:35:46.716Z,100.00
2018-12-19T21:38:15.137Z,100.00
2018-12-19T21:40:43.932Z,100.00
2018-12-19T21:43:12.458Z,100.00
2018-12-19T21:45:40.921Z,100.00
2018-12-19T21:48:09.252Z,100.00
2018-12-19T21:50:37.994Z,100.00
2018-12-19T21:53:06.424Z,100.00
2018-12-19T21:55:34.812Z,100.00
2018-12-19T21:58:03.188Z,100.00
2018-12-19T22:00:37.662Z,100.00
2018-12-19T22:03:07.286Z,100.00
2018-12-19T22:05:37.899Z,100.00
2018-12-19T22:08:06.883Z,100.00
2018-12-19T22:10:35.625Z,100.00
2018-12-19T22:13:04.426Z,100.00
2018-12-19T22:15:33.088Z,100.00
2018-12-19T22:18:07.043Z,100.00
2018-12-19T22:20:35.879Z,100.00
2018-12-19T22:23:05.076Z,100.00
2018-12-19T22:25:33.856Z,100.00
2018-12-19T22:28:02.515Z,100.00
2018-12-19T22:30:31.723Z,100.00
2018-12-19T22:33:00.310Z,100.00
2018-12-19T22:35:28.815Z,100.00
2018-12-19T22:37:57.174Z,100.00
2018-12-19T22:40:25.794Z,100.00
2018-12-19T22:42:54.183Z,100.00
2018-12-19T22:45:22.540Z,100.00
2018-12-19T22:47:50.906Z,100.00
2018-12-19T22:50:19.428Z,100.00
2018-12-19T22:52:47.757Z,100.00
2018-12-19T22:55:16.160Z,100.00
2018-12-19T22:57:44.806Z,100.00
2018-12-19T23:00:19.828Z,100.00
2018-12-19T23:02:53.437Z,100.00
2018-12-19T23:05:27.297Z,100.00
2018-12-19T23:07:55.696Z,100.00
2018-12-19T23:10:24.168Z,100.00
2018-12-19T23:12:52.517Z,100.00
2018-12-19T23:15:21.538Z,100.00
2018-12-19T23:17:50.175Z,100.00
2018-12-19T23:20:18.813Z,100.00
2018-12-19T23:22:47.162Z,100.00
2018-12-19T23:25:15.484Z,100.00
2018-12-19T23:27:43.819Z,100.00
2018-12-19T23:30:12.344Z,100.00
2018-12-19T23:32:40.658Z,100.00
2018-12-19T23:35:09.171Z,100.00
2018-12-19T23:37:37.781Z,100.00
2018-12-19T23:40:06.588Z,100.00
2018-12-19T23:42:35.039Z,100.00
2018-12-19T23:45:03.542Z,100.00
2018-12-19T23:47:32.033Z,100.00
2018-12-19T23:50:00.477Z,100.00
2018-12-19T23:52:28.905Z,100.00
2018-12-19T23:54:57.266Z,100.00
2018-12-19T23:57:25.585Z,100.00
2018-12-19T23:59:54.037Z,100.00
